Time;durP1;ratioP1;P1;durP2;ratioP2;P2;SDS_P1;SDS_P2;PMS_P1;PMS_P2;Temp;Humidity;BMP_temperature;BMP_pressure;BME280_temperature;BME280_humidity;BME280_pressure;Samples;Min_cycle;Max_cycle;Signal;HPM_P1;HPM_P2
2021/04/12 00:02:34;;;;;;;0.30;0.30;;;;;;;1.48;89.82;99856.88;5105736;28;20032;-58
2021/04/12 00:05:18;;;;;;;0.40;0.40;;;;;;;1.48;89.97;99855.19;5105509;28;20028;-58
2021/04/12 00:07:48;;;;;;;0.40;0.40;;;;;;;1.48;89.91;99855.19;5105695;28;20035;-58
2021/04/12 00:10:27;;;;;;;0.40;0.40;;;;;;;1.50;90.05;99856.91;5106000;28;20058;-59
2021/04/12 00:12:56;;;;;;;0.30;0.30;;;;;;;1.52;90.00;99855.25;5105703;28;20039;-58
2021/04/12 00:15:28;;;;;;;0.40;0.40;;;;;;;1.54;89.97;99858.69;5104703;28;20103;-59
2021/04/12 00:17:57;;;;;;;;;;;;;;;1.56;90.00;99862.16;5106056;28;20027;-59
2021/04/12 00:20:34;;;;;;;0.38;0.38;;;;;;;1.55;90.00;99860.44;5105237;28;19947;-59
2021/04/12 00:23:04;;;;;;;0.35;0.35;;;;;;;1.55;89.91;99865.56;5105310;28;20039;-58
2021/04/12 00:25:42;;;;;;;0.30;0.30;;;;;;;1.56;90.11;99862.16;5105103;28;20032;-60
2021/04/12 00:28:32;;;;;;;0.40;0.40;;;;;;;1.60;90.03;99861.38;5105156;28;20054;-59
2021/04/12 00:31:12;;;;;;;0.38;0.38;;;;;;;1.61;90.14;99856.28;5105321;28;20028;-59
2021/04/12 00:34:08;;;;;;;0.30;0.30;;;;;;;1.67;90.23;99859.78;5104941;28;20030;-59
2021/04/12 00:36:58;;;;;;;0.40;0.40;;;;;;;1.73;90.18;99865.03;5105148;28;20027;-59
2021/04/12 00:39:43;;;;;;;0.40;0.40;;;;;;;1.77;90.04;99853.16;5105032;28;20016;-59
2021/04/12 00:42:19;;;;;;;0.40;0.40;;;;;;;1.77;89.95;99858.28;5105006;28;20081;-58
2021/04/12 00:45:28;;;;;;;0.35;0.35;;;;;;;1.83;90.07;99861.81;5104917;28;20020;-59
2021/04/12 00:48:10;;;;;;;0.30;0.30;;;;;;;1.90;90.25;99862.78;5022290;28;20030;-59
2021/04/12 00:50:44;;;;;;;0.40;0.40;;;;;;;1.99;90.28;99864.66;5022178;28;20041;-60
2021/04/12 00:53:24;;;;;;;0.30;0.30;;;;;;;2.07;90.06;99857.09;5022165;28;20087;-59
2021/04/12 00:55:54;;;;;;;0.30;0.30;;;;;;;2.08;90.09;99854.56;5021756;28;20545;-59
2021/04/12 00:58:42;;;;;;;0.30;0.30;;;;;;;2.14;89.88;99870.88;5021755;28;20072;-59
2021/04/12 01:01:13;;;;;;;0.35;0.35;;;;;;;2.13;89.84;99874.25;5022167;28;20469;-60
2021/04/12 01:03:50;;;;;;;0.30;0.30;;;;;;;2.12;89.76;99868.31;5021630;28;20052;-59
2021/04/12 01:06:55;;;;;;;0.40;0.40;;;;;;;2.11;89.62;99879.34;5021845;28;20110;-60
2021/04/12 01:09:51;;;;;;;0.32;0.32;;;;;;;2.10;89.72;99880.22;5021035;28;20124;-60
2021/04/12 01:12:31;;;;;;;0.40;0.40;;;;;;;2.10;89.72;99877.66;5021614;28;20045;-60
2021/04/12 01:15:25;;;;;;;0.30;0.30;;;;;;;2.10;89.64;99875.97;5021762;28;20069;-60
2021/04/12 01:17:53;;;;;;;0.30;0.30;;;;;;;2.12;89.72;99881.09;5021767;28;20116;-60
2021/04/12 01:20:40;;;;;;;0.30;0.30;;;;;;;2.12;89.76;99875.97;5021504;28;20030;-60
2021/04/12 01:23:25;;;;;;;0.40;0.40;;;;;;;2.12;89.66;99883.66;5098277;28;20024;-59
2021/04/12 01:25:53;;;;;;;0.30;0.30;;;;;;;2.13;89.57;99890.50;5104084;28;20031;-61
2021/04/12 01:28:40;;;;;;;0.30;0.30;;;;;;;2.10;89.66;99886.19;5104015;28;20032;-59
2021/04/12 01:31:13;;;;;;;0.30;0.30;;;;;;;2.11;89.60;99884.47;5104243;28;20075;-60
2021/04/12 01:34:00;;;;;;;0.30;0.30;;;;;;;2.13;89.78;99881.94;5103799;28;20388;-60
2021/04/12 01:37:06;;;;;;;0.40;0.40;;;;;;;2.14;89.66;99888.81;5103970;28;20038;-59
2021/04/12 01:39:41;;;;;;;0.40;0.40;;;;;;;2.13;89.68;99884.50;5103848;28;20020;-59
2021/04/12 01:42:15;;;;;;;0.40;0.40;;;;;;;2.11;89.62;99881.91;5103940;28;20055;-60
2021/04/12 01:45:06;;;;;;;0.30;0.30;;;;;;;2.15;89.79;99890.53;5085479;28;20032;-59
2021/04/12 01:47:44;;;;;;;0.40;0.40;;;;;;;2.15;89.88;99896.53;5103519;28;20030;-59
2021/04/12 01:50:42;;;;;;;0.35;0.35;;;;;;;2.14;89.86;99905.03;5103688;28;20036;-58
2021/04/12 01:53:10;;;;;;;0.30;0.30;;;;;;;2.13;89.84;99905.88;5103680;28;20024;-59
2021/04/12 01:55:43;;;;;;;0.40;0.40;;;;;;;2.13;89.70;99912.69;5103659;28;20044;-59
2021/04/12 01:58:14;;;;;;;0.40;0.40;;;;;;;2.11;89.60;99910.09;5103452;28;20031;-60
2021/04/12 02:00:54;;;;;;;0.40;0.40;;;;;;;2.10;89.73;99918.63;5103610;28;20024;-59
2021/04/12 02:03:46;;;;;;;0.30;0.30;;;;;;;2.08;89.64;99926.28;5103635;28;20043;-59
2021/04/12 02:06:46;;;;;;;0.40;0.40;;;;;;;2.08;89.70;99925.41;5103639;28;20530;-59
2021/04/12 02:09:27;;;;;;;0.40;0.40;;;;;;;2.09;89.93;99916.91;5103623;28;20032;-59
2021/04/12 02:12:01;;;;;;;0.40;0.40;;;;;;;2.08;89.68;99918.59;5103718;28;20020;-59
2021/04/12 02:14:36;;;;;;;0.40;0.40;;;;;;;2.11;89.90;99917.78;5103487;28;20027;-60
2021/04/12 02:17:31;;;;;;;0.40;0.40;;;;;;;2.12;90.01;99919.53;5103476;28;20020;-59
2021/04/12 02:19:57;;;;;;;0.30;0.30;;;;;;;2.13;89.87;99925.47;5103274;28;20031;-59
2021/04/12 02:23:08;;;;;;;0.40;0.40;;;;;;;2.13;89.72;99935.72;5103695;28;20028;-60
2021/04/12 02:25:43;;;;;;;0.35;0.35;;;;;;;2.11;89.97;99928.00;5103395;28;20020;-60
2021/04/12 02:28:38;;;;;;;0.30;0.30;;;;;;;2.11;89.93;99933.13;5103573;28;20376;-59
2021/04/12 02:31:29;;;;;;;0.40;0.40;;;;;;;2.10;89.81;99931.44;5103499;28;20159;-59
2021/04/12 02:34:20;;;;;;;0.38;0.38;;;;;;;2.11;89.72;99938.25;5102944;28;20024;-59
2021/04/12 02:37:39;;;;;;;0.40;0.40;;;;;;;2.14;90.05;99947.72;5103369;28;20035;-59
2021/04/12 02:40:27;;;;;;;0.40;0.40;;;;;;;2.17;90.07;99953.75;5038408;28;20029;-59
2021/04/12 02:43:19;;;;;;;0.30;0.30;;;;;;;2.17;89.95;99951.19;5044369;28;20041;-59
2021/04/12 02:46:02;;;;;;;0.30;0.30;;;;;;;2.20;89.92;99951.25;5044393;28;20441;-60
2021/04/12 02:48:30;;;;;;;0.30;0.30;;;;;;;2.20;89.82;99950.38;5043998;28;20049;-58
2021/04/12 02:51:22;;;;;;;0.40;0.40;;;;;;;2.19;89.82;99952.09;5044300;28;20022;-59
2021/04/12 02:54:03;;;;;;;0.40;0.40;;;;;;;2.22;89.89;99947.00;5044374;28;20037;-59
2021/04/12 02:56:54;;;;;;;0.40;0.40;;;;;;;2.23;89.95;99946.19;5044121;28;20041;-59
2021/04/12 02:59:39;;;;;;;0.40;0.40;;;;;;;2.23;89.87;99943.63;5044284;28;20052;-59
2021/04/12 03:02:40;;;;;;;0.40;0.40;;;;;;;2.25;89.87;99945.34;5044001;28;20033;-59
2021/04/12 03:05:34;;;;;;;0.32;0.32;;;;;;;2.28;89.88;99951.41;5043323;28;20021;-59
2021/04/12 03:08:26;;;;;;;0.40;0.40;;;;;;;2.28;89.76;99946.28;5043942;28;20038;-59
2021/04/12 03:11:25;;;;;;;0.40;0.40;;;;;;;2.31;89.90;99948.03;5044128;28;20037;-59
2021/04/12 03:14:10;;;;;;;0.40;0.40;;;;;;;2.35;90.24;99952.34;5064300;28;20036;-59
2021/04/12 03:17:07;;;;;;;0.40;0.40;;;;;;;2.33;89.88;99949.75;5106863;28;20028;-59
2021/04/12 03:20:09;;;;;;;0.40;0.40;;;;;;;2.27;89.64;99954.78;5084761;28;20051;-59
2021/04/12 03:23:06;;;;;;;0.40;0.40;;;;;;;2.23;89.93;99956.44;5106982;28;20020;-59
2021/04/12 03:25:47;;;;;;;0.40;0.40;;;;;;;2.20;89.65;99952.97;5106689;28;20024;-59
2021/04/12 03:28:41;;;;;;;0.40;0.40;;;;;;;2.15;89.75;99952.00;5106700;28;20027;-59
2021/04/12 03:31:51;;;;;;;0.40;0.40;;;;;;;2.14;89.76;99965.66;5106903;28;20161;-59
2021/04/12 03:34:29;;;;;;;0.40;0.40;;;;;;;2.10;89.89;99963.03;5082896;28;20036;-59
2021/04/12 03:37:03;;;;;;;0.40;0.40;;;;;;;2.11;89.81;99963.88;5106662;28;20043;-59
2021/04/12 03:39:47;;;;;;;0.30;0.30;;;;;;;2.13;89.90;99967.34;5106356;28;20047;-59
2021/04/12 03:42:31;;;;;;;0.30;0.30;;;;;;;2.14;89.89;99973.34;5106476;28;20052;-59
2021/04/12 03:45:08;;;;;;;0.40;0.40;;;;;;;2.15;89.94;99973.34;5106511;28;20024;-59
2021/04/12 03:47:42;;;;;;;0.40;0.40;;;;;;;2.16;90.08;99975.06;5106274;28;20012;-59
2021/04/12 03:50:29;;;;;;;0.30;0.30;;;;;;;2.17;90.10;99971.66;5104688;28;20465;-59
2021/04/12 03:53:03;;;;;;;0.40;0.40;;;;;;;2.18;89.90;99965.72;5106216;28;20024;-59
2021/04/12 03:56:01;;;;;;;0.30;0.30;;;;;;;2.22;90.07;99971.78;5105975;28;20042;-60
2021/04/12 03:59:12;;;;;;;0.35;0.35;;;;;;;2.27;90.20;99974.44;5105959;28;20017;-59
2021/04/12 04:01:46;;;;;;;0.40;0.40;;;;;;;2.31;90.20;99977.06;5067218;28;20480;-59
2021/04/12 04:04:33;;;;;;;0.30;0.30;;;;;;;2.34;90.25;99981.38;5105735;28;20027;-59
2021/04/12 04:07:22;;;;;;;0.40;0.40;;;;;;;2.35;90.16;99988.22;5105814;28;20042;-59
2021/04/12 04:09:54;;;;;;;0.35;0.35;;;;;;;2.37;90.22;99990.81;5105796;28;20028;-60
2021/04/12 04:12:42;;;;;;;0.30;0.30;;;;;;;2.39;90.10;99989.16;5105985;28;20045;-59
2021/04/12 04:15:26;;;;;;;0.40;0.40;;;;;;;2.40;90.12;99991.75;5105619;28;20040;-59
2021/04/12 04:18:14;;;;;;;0.32;0.32;;;;;;;2.40;90.15;100004.56;5105607;28;20024;-59
2021/04/12 04:20:49;;;;;;;0.40;0.40;;;;;;;2.42;90.30;100010.56;5105487;28;20102;-59
2021/04/12 04:23:20;;;;;;;0.40;0.40;;;;;;;2.44;90.16;100011.47;5105544;28;20030;-59
2021/04/12 04:26:13;;;;;;;0.40;0.40;;;;;;;2.46;90.24;100009.78;5105539;28;20020;-61
2021/04/12 04:28:47;;;;;;;0.30;0.30;;;;;;;2.47;90.15;100005.53;5087109;28;20059;-61
2021/04/12 04:31:25;;;;;;;0.30;0.30;;;;;;;2.50;90.28;100031.22;5105513;28;20054;-60
2021/04/12 04:34:23;;;;;;;0.30;0.30;;;;;;;2.50;90.09;100017.53;5105237;28;20288;-60
2021/04/12 04:37:23;;;;;;;0.40;0.40;;;;;;;2.42;90.02;100020.81;5105489;28;20038;-60
2021/04/12 04:40:01;;;;;;;0.30;0.30;;;;;;;2.38;90.02;100041.25;5105049;28;20024;-60
2021/04/12 04:43:13;;;;;;;0.30;0.30;;;;;;;2.35;90.18;100047.16;5087007;28;20062;-60
2021/04/12 04:45:49;;;;;;;0.40;0.40;;;;;;;2.35;90.14;100049.72;5022476;28;20053;-59
2021/04/12 04:48:16;;;;;;;0.30;0.30;;;;;;;2.33;90.17;100051.41;5022496;28;20066;-60
2021/04/12 04:51:06;;;;;;;0.30;0.30;;;;;;;2.31;90.15;100048.81;5022116;28;20101;-59
2021/04/12 04:53:59;;;;;;;0.50;0.50;;;;;;;2.33;90.23;100047.13;5022373;28;20113;-59
2021/04/12 04:56:35;;;;;;;0.40;0.40;;;;;;;2.28;90.06;100063.25;5022083;28;20042;-59
2021/04/12 04:59:19;;;;;;;0.38;0.38;;;;;;;2.26;90.12;100072.59;5022122;28;20453;-61
2021/04/12 05:02:12;;;;;;;0.40;0.40;;;;;;;2.26;90.09;100075.16;5021893;28;20117;-60
2021/04/12 05:04:55;;;;;;;0.40;0.40;;;;;;;2.27;90.11;100090.53;5021845;28;20029;-60
2021/04/12 05:07:27;;;;;;;0.38;0.38;;;;;;;2.31;90.20;100082.09;5022007;28;20038;-60
2021/04/12 05:10:01;;;;;;;0.40;0.40;;;;;;;2.29;90.15;100075.22;5022096;28;20094;-61
2021/04/12 05:12:47;;;;;;;0.40;0.40;;;;;;;2.40;90.09;100089.09;5021757;28;20446;-62
2021/04/12 05:15:43;;;;;;;0.30;0.30;;;;;;;2.43;90.19;100091.72;5022019;28;20029;-60
2021/04/12 05:18:37;;;;;;;0.30;0.30;;;;;;;2.48;90.21;100102.94;5021605;28;20470;-60
2021/04/12 05:21:38;;;;;;;0.30;0.30;;;;;;;2.49;90.20;100103.81;5104399;28;20468;-61
2021/04/12 05:24:03;;;;;;;0.40;0.40;;;;;;;2.49;90.20;100101.25;5103716;28;20045;-60
2021/04/12 05:26:37;;;;;;;0.30;0.30;;;;;;;2.51;90.15;100112.38;5104015;28;20024;-59
2021/04/12 05:29:15;;;;;;;0.40;0.40;;;;;;;2.54;90.20;100104.75;5103907;28;20048;-59
2021/04/12 05:31:46;;;;;;;0.30;0.30;;;;;;;2.61;90.19;100105.75;5104328;28;20252;-59
2021/04/12 05:34:21;;;;;;;0.30;0.30;;;;;;;2.60;90.06;100109.16;5103831;28;20059;-59
2021/04/12 05:37:06;;;;;;;0.38;0.38;;;;;;;2.58;90.12;100109.13;5104389;28;20031;-60
2021/04/12 05:40:02;;;;;;;0.30;0.30;;;;;;;2.64;90.29;100116.03;5104346;28;20210;-61
2021/04/12 05:42:39;;;;;;;0.30;0.30;;;;;;;2.72;90.26;100137.56;5104405;28;20028;-61
2021/04/12 05:45:23;;;;;;;0.38;0.38;;;;;;;2.78;90.40;100131.69;5104224;28;20031;-61
2021/04/12 05:48:30;;;;;;;0.40;0.40;;;;;;;2.76;90.25;100142.75;5104109;28;20545;-61
2021/04/12 05:51:33;;;;;;;0.30;0.30;;;;;;;2.69;90.12;100149.47;5096526;28;20028;-61
2021/04/12 05:54:04;;;;;;;0.40;0.40;;;;;;;2.64;90.08;100154.50;5103971;28;20044;-61
2021/04/12 05:56:45;;;;;;;0.30;0.30;;;;;;;2.63;90.22;100157.91;5103638;28;20521;-62
2021/04/12 05:59:29;;;;;;;0.40;0.40;;;;;;;2.75;90.24;100166.69;5103703;28;20053;-60
2021/04/12 06:02:23;;;;;;;0.30;0.30;;;;;;;2.86;90.31;100170.28;5103831;28;20261;-62
2021/04/12 06:05:07;;;;;;;0.30;0.30;;;;;;;2.88;90.23;100168.63;5103569;28;20035;-61
2021/04/12 06:07:50;;;;;;;0.30;0.30;;;;;;;2.92;90.23;100174.69;5103888;28;20397;-62
2021/04/12 06:10:21;;;;;;;0.40;0.40;;;;;;;3.10;90.52;100175.03;5103831;28;20626;-62
2021/04/12 06:13:06;;;;;;;0.40;0.40;;;;;;;3.41;90.73;100179.84;5084658;28;20032;-63
2021/04/12 06:16:04;;;;;;;0.30;0.30;;;;;;;3.67;90.82;100182.00;5103934;28;20397;-63
2021/04/12 06:19:09;;;;;;;0.30;0.30;;;;;;;3.77;90.71;100187.28;5103630;28;20023;-62
2021/04/12 06:21:57;;;;;;;0.40;0.40;;;;;;;3.84;90.62;100189.09;5104137;28;20031;-64
2021/04/12 06:25:03;;;;;;;0.30;0.30;;;;;;;3.87;90.51;100191.72;5103823;28;20047;-64
2021/04/12 06:27:33;;;;;;;0.30;0.30;;;;;;;3.85;90.48;100175.41;5074975;28;20388;-64
2021/04/12 06:30:22;;;;;;;0.30;0.30;;;;;;;3.71;90.22;100199.19;5103779;28;20032;-63
2021/04/12 06:32:54;;;;;;;0.30;0.30;;;;;;;3.65;90.16;100200.78;5103888;28;20020;-61
2021/04/12 06:35:32;;;;;;;0.40;0.40;;;;;;;3.62;90.11;100208.44;5103653;28;20091;-61
2021/04/12 06:38:16;;;;;;;0.38;0.38;;;;;;;3.62;90.07;100213.56;5103476;28;20047;-61
2021/04/12 06:41:12;;;;;;;0.30;0.30;;;;;;;3.53;90.13;100217.69;5085206;28;20456;-61
2021/04/12 06:43:58;;;;;;;0.30;0.30;;;;;;;3.55;90.12;100227.97;5103719;28;20024;-62
2021/04/12 06:46:42;;;;;;;0.40;0.40;;;;;;;3.51;89.85;100221.97;5103441;28;20028;-61
2021/04/12 06:49:28;;;;;;;0.30;0.30;;;;;;;3.43;89.76;100219.25;5103080;28;20088;-60
2021/04/12 06:52:15;;;;;;;0.30;0.30;;;;;;;3.37;89.93;100216.56;5103530;28;20024;-60
2021/04/12 06:55:18;;;;;;;0.38;0.38;;;;;;;3.38;89.98;100226.00;5103304;28;20035;-60
2021/04/12 06:57:47;;;;;;;0.30;0.30;;;;;;;3.52;90.21;100223.69;5103544;28;20040;-60
2021/04/12 07:00:12;;;;;;;0.40;0.40;;;;;;;3.62;90.16;100217.00;5103289;28;20077;-61
2021/04/12 07:02:56;;;;;;;0.30;0.30;;;;;;;3.62;89.86;100223.84;5103154;28;20017;-62
2021/04/12 07:05:59;;;;;;;0.30;0.30;;;;;;;3.55;89.82;100235.69;5103147;28;20028;-61
2021/04/12 07:08:53;;;;;;;0.50;0.50;;;;;;;3.52;90.03;100233.94;5103087;28;20036;-62
2021/04/12 07:11:27;;;;;;;0.30;0.30;;;;;;;3.51;89.98;100237.34;5103455;28;20022;-62
2021/04/12 07:14:47;;;;;;;0.30;0.30;;;;;;;3.61;90.13;100245.22;5102872;28;20456;-61
2021/04/12 07:17:34;;;;;;;0.30;0.30;;;;;;;3.69;90.16;100249.63;5103276;28;20032;-63
2021/04/12 07:20:30;;;;;;;0.30;0.30;;;;;;;3.74;90.00;100243.72;5103100;28;20020;-62
2021/04/12 07:23:14;;;;;;;0.30;0.30;;;;;;;3.67;89.83;100247.88;5103522;28;20028;-63
2021/04/12 07:25:55;;;;;;;0.38;0.38;;;;;;;3.95;90.46;100251.78;5106906;28;20491;-62
2021/04/12 07:29:00;;;;;;;0.30;0.30;;;;;;;4.42;90.57;100244.78;5106783;28;20058;-62
2021/04/12 07:32:03;;;;;;;0.30;0.30;;;;;;;4.52;90.26;100250.91;5106997;28;20020;-62
2021/04/12 07:34:59;;;;;;;0.30;0.30;;;;;;;4.46;90.05;100256.84;5106491;28;20027;-63
2021/04/12 07:37:46;;;;;;;0.40;0.40;;;;;;;4.56;90.32;100262.09;5088700;28;20027;-62
2021/04/12 07:40:23;;;;;;;0.30;0.30;;;;;;;4.59;90.19;100269.84;5106522;28;20112;-62
2021/04/12 07:43:26;;;;;;;0.30;0.30;;;;;;;4.57;90.20;100269.84;5106247;28;20055;-62
2021/04/12 07:46:17;;;;;;;0.38;0.38;;;;;;;4.56;89.90;100282.66;5105846;28;20069;-63
2021/04/12 07:49:09;;;;;;;0.30;0.30;;;;;;;4.57;89.74;100280.13;5103859;28;20047;-62
2021/04/12 07:52:11;;;;;;;0.40;0.40;;;;;;;4.56;89.74;100280.09;5071955;28;20071;-63
2021/04/12 07:54:39;;;;;;;0.30;0.30;;;;;;;4.55;89.70;100298.94;5103534;28;20031;-62
2021/04/12 07:57:37;;;;;;;0.30;0.30;;;;;;;4.65;89.97;100290.50;5103721;28;20044;-62
2021/04/12 08:00:36;;;;;;;0.30;0.30;;;;;;;5.17;90.79;100297.19;5088864;28;20044;-62
2021/04/12 08:03:25;;;;;;;0.30;0.30;;;;;;;5.60;90.74;100295.94;5104486;28;20104;-63
2021/04/12 08:06:27;;;;;;;0.20;0.20;;;;;;;5.61;90.12;100301.97;5097592;28;20035;-62
2021/04/12 08:08:59;;;;;;;0.20;0.20;;;;;;;5.40;89.78;100304.31;5106185;28;20032;-62
2021/04/12 08:12:01;;;;;;;0.30;0.30;;;;;;;5.24;89.61;100305.84;5106437;28;20023;-62
2021/04/12 08:14:45;;;;;;;;;;;;;;;5.19;89.40;100297.22;5106645;28;20027;-62
2021/04/12 08:17:35;;;;;;;0.30;0.30;;;;;;;5.21;89.75;100303.22;5106130;28;19912;-63
2021/04/12 08:20:35;;;;;;;0.30;0.30;;;;;;;5.20;89.69;100307.53;5105485;28;20028;-63
2021/04/12 08:23:38;;;;;;;0.30;0.30;;;;;;;5.11;89.41;100311.69;5105792;28;20080;-63
2021/04/12 08:26:31;;;;;;;0.30;0.30;;;;;;;4.99;89.05;100322.69;5105889;28;20025;-62
2021/04/12 08:29:18;;;;;;;0.30;0.30;;;;;;;4.87;89.15;100326.84;5105759;28;20039;-62
2021/04/12 08:32:14;;;;;;;0.30;0.30;;;;;;;4.81;89.26;100331.88;5105876;28;20046;-62
2021/04/12 08:35:01;;;;;;;0.30;0.30;;;;;;;4.75;89.45;100347.22;5105112;28;20082;-62
2021/04/12 08:37:38;;;;;;;0.30;0.30;;;;;;;4.68;89.30;100339.41;5104969;28;20024;-62
2021/04/12 08:40:25;;;;;;;0.30;0.30;;;;;;;4.59;89.24;100350.44;5105637;28;20436;-61
2021/04/12 08:42:56;;;;;;;0.30;0.30;;;;;;;4.52;89.25;100342.63;5105599;28;20032;-61
2021/04/12 08:45:40;;;;;;;0.30;0.30;;;;;;;4.53;89.32;100349.47;5105796;28;20028;-62
2021/04/12 08:48:23;;;;;;;0.25;0.25;;;;;;;4.83;89.97;100349.06;5105534;28;20028;-61
2021/04/12 08:51:12;;;;;;;0.40;0.40;;;;;;;6.02;91.12;100353.03;5105554;28;20035;-62
2021/04/12 08:53:40;;;;;;;0.30;0.30;;;;;;;6.64;90.59;100344.09;5105507;28;20020;-62
2021/04/12 08:56:30;;;;;;;0.20;0.20;;;;;;;7.70;90.32;100347.16;5105879;28;20056;-61
2021/04/12 08:59:32;;;;;;;0.20;0.20;;;;;;;7.76;88.58;100349.78;5105530;28;20024;-62
2021/04/12 09:02:08;;;;;;;;;;;;;;;7.26;87.25;100353.91;5105975;28;20020;-62
2021/04/12 09:04:37;;;;;;;0.30;0.30;;;;;;;6.65;86.54;100362.16;5105079;28;19908;-62
2021/04/12 09:07:15;;;;;;;0.30;0.30;;;;;;;6.19;86.27;100367.81;5105313;28;20051;-62
2021/04/12 09:09:53;;;;;;;0.30;0.30;;;;;;;5.86;86.66;100382.06;5105122;28;20024;-62
2021/04/12 09:12:49;;;;;;;0.20;0.20;;;;;;;5.58;86.92;100374.91;5086689;28;20028;-62
2021/04/12 09:15:39;;;;;;;0.30;0.30;;;;;;;5.31;87.24;100384.88;5105074;28;20032;-62
2021/04/12 09:18:22;;;;;;;0.30;0.30;;;;;;;5.53;88.56;100386.84;5104547;28;20059;-62
2021/04/12 09:20:59;;;;;;;0.30;0.30;;;;;;;5.86;88.95;100385.53;5104480;28;20106;-62
2021/04/12 09:23:53;;;;;;;0.30;0.30;;;;;;;6.09;88.71;100387.50;5104789;28;20457;-63
2021/04/12 09:26:50;;;;;;;0.30;0.30;;;;;;;6.20;88.69;100391.03;5070517;28;20039;-62
2021/04/12 09:29:45;;;;;;;0.30;0.30;;;;;;;6.26;88.40;100390.22;5104420;28;20057;-61
2021/04/12 09:32:44;;;;;;;0.30;0.30;;;;;;;6.42;88.61;100401.53;5104876;28;20417;-62
2021/04/12 09:35:36;;;;;;;0.30;0.30;;;;;;;6.88;88.70;100394.16;5104288;28;20028;-62
2021/04/12 09:38:29;;;;;;;0.20;0.20;;;;;;;6.93;88.05;100395.06;5104607;28;20016;-62
2021/04/12 09:41:19;;;;;;;0.20;0.20;;;;;;;6.84;87.70;100395.00;5104481;28;20034;-62
2021/04/12 09:44:06;;;;;;;0.40;0.40;;;;;;;6.46;86.52;100410.16;5104717;28;20031;-61
2021/04/12 09:46:56;;;;;;;0.30;0.30;;;;;;;6.17;87.32;100415.91;5104190;28;20020;-61
2021/04/12 09:49:49;;;;;;;0.30;0.30;;;;;;;6.11;85.86;100416.72;5103993;28;20392;-62
2021/04/12 09:52:29;;;;;;;0.30;0.30;;;;;;;6.10;83.28;100424.44;5104016;28;20031;-62
2021/04/12 09:55:32;;;;;;;0.38;0.38;;;;;;;6.01;80.57;100410.56;5104250;28;20031;-61
2021/04/12 09:58:14;;;;;;;0.20;0.20;;;;;;;6.35;82.42;100412.66;5104505;28;20036;-61
2021/04/12 10:01:02;;;;;;;0.30;0.30;;;;;;;7.22;82.33;100422.75;5104275;28;20019;-61
2021/04/12 10:03:30;;;;;;;0.30;0.30;;;;;;;7.82;82.00;100421.28;5104436;28;20023;-61
2021/04/12 10:06:20;;;;;;;0.20;0.20;;;;;;;8.25;79.59;100423.13;5103742;28;20276;-61
2021/04/12 10:09:08;;;;;;;0.20;0.20;;;;;;;8.83;77.07;100420.59;5104241;28;20024;-62
2021/04/12 10:11:42;;;;;;;0.30;0.30;;;;;;;8.79;77.01;100440.44;5104053;28;20553;-62
2021/04/12 10:14:12;;;;;;;0.30;0.30;;;;;;;9.07;76.82;100436.94;5104061;28;20028;-61
2021/04/12 10:16:41;;;;;;;0.40;0.40;;;;;;;10.03;77.01;100432.28;5104038;28;20028;-61
2021/04/12 10:19:21;;;;;;;0.30;0.30;;;;;;;10.48;72.62;100433.75;5103727;28;20077;-61
2021/04/12 10:21:53;;;;;;;0.20;0.20;;;;;;;9.97;71.32;100437.50;5103944;28;20024;-61
2021/04/12 10:24:33;;;;;;;0.30;0.30;;;;;;;9.39;70.01;100443.75;5104067;28;20061;-61
2021/04/12 10:27:24;;;;;;;0.30;0.30;;;;;;;9.54;73.71;100436.81;5103775;28;20070;-62
2021/04/12 10:29:57;;;;;;;0.30;0.30;;;;;;;9.13;71.16;100449.00;5094176;28;20040;-62
2021/04/12 10:32:31;;;;;;;0.20;0.20;;;;;;;8.53;70.30;100459.34;5103880;28;20024;-61
2021/04/12 10:35:00;;;;;;;0.20;0.20;;;;;;;8.13;70.60;100457.56;5103379;28;20027;-62
2021/04/12 10:37:54;;;;;;;0.20;0.20;;;;;;;8.01;69.82;100454.94;5104160;28;20070;-61
2021/04/12 10:40:38;;;;;;;0.30;0.30;;;;;;;8.07;70.89;100465.31;5101488;28;20063;-62
2021/04/12 10:43:21;;;;;;;0.30;0.30;;;;;;;8.10;71.44;100462.72;5103661;28;20024;-63
2021/04/12 10:46:27;;;;;;;0.30;0.30;;;;;;;8.03;70.15;100472.22;5083244;28;20024;-63
2021/04/12 10:49:04;;;;;;;0.30;0.30;;;;;;;7.68;69.66;100471.19;5101010;28;20020;-62
2021/04/12 10:51:36;;;;;;;0.30;0.30;;;;;;;7.38;68.35;100482.25;5101355;28;20028;-63
2021/04/12 10:54:17;;;;;;;0.40;0.40;;;;;;;7.15;67.85;100486.41;5101449;28;20050;-63
2021/04/12 10:56:45;;;;;;;0.30;0.30;;;;;;;7.80;71.79;100479.88;5100825;28;20508;-63
2021/04/12 10:59:51;;;;;;;0.30;0.30;;;;;;;8.47;71.63;100493.00;5102329;28;20119;-63
2021/04/12 11:02:23;;;;;;;0.25;0.25;;;;;;;8.62;68.82;100487.03;5059895;28;20048;-62
2021/04/12 11:05:09;;;;;;;0.30;0.30;;;;;;;8.81;67.50;100492.19;5064243;28;20036;-63
2021/04/12 11:07:40;;;;;;;0.30;0.30;;;;;;;8.66;65.54;100496.50;5064505;28;20086;-62
2021/04/12 11:10:32;;;;;;;0.20;0.20;;;;;;;8.35;63.77;100499.03;5064462;28;20032;-62
2021/04/12 11:13:23;;;;;;;0.20;0.20;;;;;;;8.18;65.10;100498.94;5064246;28;20041;-62
2021/04/12 11:16:11;;;;;;;0.30;0.30;;;;;;;7.91;60.13;100492.81;5060435;28;20049;-62
2021/04/12 11:19:00;;;;;;;0.30;0.30;;;;;;;8.15;61.37;100502.41;5064110;28;20088;-63
2021/04/12 11:22:01;;;;;;;1.75;1.15;;;;;;;8.76;61.78;100499.09;5064071;28;20032;-62
2021/04/12 11:25:02;;;;;;;0.30;0.30;;;;;;;8.61;57.60;100511.16;5038778;28;20107;-62
2021/04/12 11:28:06;;;;;;;0.30;0.30;;;;;;;8.20;57.75;100510.19;5063763;28;20143;-63
2021/04/12 11:30:43;;;;;;;0.30;0.30;;;;;;;7.68;57.87;100509.94;4984697;28;20031;-62
2021/04/12 11:33:30;;;;;;;0.30;0.30;;;;;;;7.39;59.95;100515.84;4985009;28;20050;-63
2021/04/12 11:36:16;;;;;;;0.30;0.30;;;;;;;7.21;60.24;100520.84;4984841;28;20046;-62
2021/04/12 11:38:58;;;;;;;0.40;0.40;;;;;;;7.13;61.55;100521.66;4995227;28;20041;-62
2021/04/12 11:41:30;;;;;;;0.40;0.40;;;;;;;7.01;60.45;100521.59;5004284;28;20041;-63
2021/04/12 11:43:59;;;;;;;0.30;0.30;;;;;;;6.93;60.29;100531.84;5004620;28;20030;-62
2021/04/12 11:47:03;;;;;;;0.30;0.30;;;;;;;7.01;59.84;100531.91;5004473;28;20043;-63
2021/04/12 11:49:40;;;;;;;0.68;0.65;;;;;;;6.96;59.92;100528.41;5004027;28;20038;-62
2021/04/12 11:52:25;;;;;;;0.30;0.30;;;;;;;6.92;60.42;100530.97;5004384;28;20519;-62
2021/04/12 11:55:17;;;;;;;0.30;0.30;;;;;;;7.12;61.15;100527.69;5004154;28;20307;-63
2021/04/12 11:58:20;;;;;;;0.40;0.40;;;;;;;7.26;60.86;100537.25;4984807;28;20042;-62
2021/04/12 12:00:59;;;;;;;0.40;0.40;;;;;;;7.41;60.08;100524.44;5011253;28;20047;-62
2021/04/12 12:03:59;;;;;;;0.30;0.30;;;;;;;7.34;60.46;100533.00;5086204;28;20025;-62
2021/04/12 12:06:32;;;;;;;1.35;1.23;;;;;;;7.24;60.16;100534.66;5085584;28;20036;-63
2021/04/12 12:09:18;;;;;;;0.30;0.30;;;;;;;7.10;59.76;100542.31;5085580;28;20023;-63
2021/04/12 12:12:08;;;;;;;5.30;1.17;;;;;;;6.91;59.85;100539.56;5084660;28;20028;-63
2021/04/12 12:15:11;;;;;;;6.72;1.45;;;;;;;6.68;60.61;100552.25;5085988;28;20025;-63
2021/04/12 12:17:43;;;;;;;;;;;;;;;6.57;60.37;100554.72;5086685;28;20485;-62
2021/04/12 12:20:21;;;;;;;4.15;1.20;;;;;;;6.44;63.47;100552.00;5085463;28;19908;-64
2021/04/12 12:23:00;;;;;;;3.85;1.20;;;;;;;6.35;64.36;100556.19;5086104;28;20458;-62
2021/04/12 12:25:36;;;;;;;12.35;2.60;;;;;;;6.45;66.74;100564.03;5086262;28;20020;-62
2021/04/12 12:28:21;;;;;;;4.15;1.23;;;;;;;6.71;65.69;100561.75;5085558;28;20059;-63
2021/04/12 12:31:30;;;;;;;8.85;1.40;;;;;;;7.02;64.77;100568.06;5085353;28;20016;-62
2021/04/12 12:34:14;;;;;;;5.13;1.38;;;;;;;7.07;61.98;100557.78;5085444;28;20029;-62
2021/04/12 12:37:07;;;;;;;8.00;0.95;;;;;;;7.10;59.75;100565.53;5085393;28;20017;-64
2021/04/12 12:39:40;;;;;;;3.83;0.88;;;;;;;7.09;59.67;100569.00;5085335;28;20020;-62
2021/04/12 12:42:34;;;;;;;3.58;0.90;;;;;;;7.07;57.91;100575.84;5085189;28;20032;-62
2021/04/12 12:45:26;;;;;;;2.20;1.00;;;;;;;7.15;60.55;100563.88;5075623;28;20033;-62
2021/04/12 12:47:57;;;;;;;5.57;1.40;;;;;;;7.21;58.60;100577.66;5084645;28;20066;-62
2021/04/12 12:50:42;;;;;;;2.45;1.17;;;;;;;7.40;59.94;100579.56;5084735;28;20344;-62
2021/04/12 12:53:15;;;;;;;3.67;1.20;;;;;;;7.50;59.31;100570.16;5085065;28;20028;-62
2021/04/12 12:55:48;;;;;;;2.78;1.10;;;;;;;7.52;58.62;100576.22;5084588;28;20080;-62
2021/04/12 12:58:23;;;;;;;3.67;0.90;;;;;;;7.45;57.80;100577.00;5084875;28;20489;-63
2021/04/12 13:00:52;;;;;;;2.17;1.00;;;;;;;7.33;57.50;100580.38;5084604;28;20092;-63
2021/04/12 13:03:25;;;;;;;6.32;1.13;;;;;;;7.18;57.25;100579.38;5084864;28;20024;-63